Big Bay, MI (49808)

7:54 PM EST on February 09, 2016 (GMT -0500)
Halfway Location | | Change Station
CLOSE
Current Station
Personal Weather Station
Location: Big Bay, MI
Elevation: 760 ft
Nearby Weather Stations
Active Advisory: Lake Effect Snow Advisory Active Notice: Local Storm Report

Elev 760 ft 46.75 °N, 87.66 °W | Updated 38 seconds ago

Snow
Snow
12.6 °F
Feels Like 13 °F
N
0.0
Wind Variable Wind from NW
Gusts 0.0 mph

Today
High -- | Low -- °F
--% Chance of Precip.
Yesterday
High -- | Low -- °F
Precip. -- in
Pressure 29.82 in
Visibility 1.2 miles
Clouds Overcast 1200 ft
Windchill 13 °F
Dew Point 8 °F
Humidity 80%
Rainfall 0.00 in
Snow Depth Not available.
8:05 AM 6:05 PM
Waxing Crescent, 3% visible
METAR KSAW 100045Z 34020G28KT 1 1/4SM -SN OVC012 M12/M14 A2982
Pressure 29.82 in
Visibility 1.2 miles
Clouds Overcast 1200 ft
Windchill 13 °F
Dew Point 8 °F
Humidity 80%
Rainfall 0.00 in
Snow Depth Not available.
8:05 AM 6:05 PM
Waxing Crescent, 3% visible
METAR KSAW 100045Z 34020G28KT 1 1/4SM -SN OVC012 M12/M14 A2982

10-Day Weather Forecast

Almanac

Astronomy

Feb. 09, 2016 Rise Set
Actual Time
Civil Twilight
Nautical Twilight
Astronomical Twilight
Moon
Length of Visible Light
Length of Day
Tomorrow will be .
, % of the Moon is Illuminated

Today's Extremes

State Highs State Lows

Community

WunderPhotos

Upload Photos

1,891,752 photos uploaded!

WunderBlog® & News

Nearby

Air Quality

  Air Quality AQ Index Pollutant
Not available.

Snow Depth

Station Depth Elevation

Earthquake Activity

City Distance Mag. Time & Date
Minimum magnitude displayed is 2.5.

Coastal Water Temperatures

Place Temperature

Stations

Nearby Weather Stations

Station Location Temp. Windchill Dew Point Humidity Wind Precip. Elev Updated Type
                   

Watches & Warnings

Lake Effect Snow Advisory
Issued: 3:29 PM EST Feb. 9, 2016 – National Weather Service

... Lake effect Snow Advisory now in effect until 7 PM EST
Wednesday...

Hazardous weather...

* lake effect snow showers will continue through Wednesday
   afternoon.

* Expect additional snowfall accumulations of 2 to 11 inches through
   Wednesday afternoon. Look for the greatest accumulations from the
   Huron Mountains to Negaunee... Marquette and Skandia.

* Expect areas of blowing snow with reduced visibility through
   Wednesday afternoon along Lake Superior.

Impacts...

* roads will be snow covered and slippery.

Precautionary/preparedness actions...

* a lake effect Snow Advisory Means Lake effect snow is
   forecast that will make travel difficult in some areas.

* Prepare... plan... and stay informed. Visit www.Weather.Gov/MQT